Hanover, Wisconsin
Current Conditions -  °F | °C
As of 5:45 PM on Thursday 18 Dec 2014 (Local Time) from KJVL Reporting Station
Overcast Overcast  
Wind Chill: 28°   Ceiling: 1300
Heat Index: 28°   Visibility: 10mi
Dew Point: 25°   Wind: 0mph
Humidity: 86%   Direction: NA
Pressure: 30.24"   Gusts: NA
Location:  42.64°N, 89.16°W
Report Text: KJVL 182345Z 00000KT 10SM OVC013 M02/M04 A3024
Loading
Personal Weather Stations






























Interactive Weather Map New forecast layout! Learn more

10-Day Weather Forecast

Advertisements
Track Severe Weather on mobile